Terminal Aerodrome Forecast
Issued by NWS Paducah, KY

Home | Current Version | Previous Version | Text Only | Print | Product List | Glossary On
Versions: 1 2 3 4 5 6 7 8 9 10 11 12 13 14
000
FTUS43 KPAH 231700
TAFEVV
TAF
KEVV 231720Z 2318/2418 12008KT P6SM VCSH OVC025
      TEMPO 2318/2320 5SM -SHRA BR OVC015
     FM232000 14010KT 3SM -RA OVC005
      TEMPO 2320/2324 1SM SHRA BR OVC003
     FM240200 20012G20KT P6SM OVC010
     FM241200 23020G30KT P6SM OVC010=

USA.gov is the U.S. government's official web portal to all federal, state and local government web resources and services.